sensor_id;sensor_type;location;lat;lon;timestamp;temperature;humidity
49253;DHT22;35103;47.952;-1.502;2022-11-20T00:01:28;7.60;78.80
49253;DHT22;35103;47.952;-1.502;2022-11-20T00:03:56;7.60;78.70
49253;DHT22;35103;47.952;-1.502;2022-11-20T00:06:22;7.60;78.80
49253;DHT22;35103;47.952;-1.502;2022-11-20T00:08:48;7.60;78.80
49253;DHT22;35103;47.952;-1.502;2022-11-20T00:11:17;7.60;78.90
49253;DHT22;35103;47.952;-1.502;2022-11-20T00:13:44;7.70;79.00
49253;DHT22;35103;47.952;-1.502;2022-11-20T00:16:11;7.70;79.00
49253;DHT22;35103;47.952;-1.502;2022-11-20T00:18:36;7.70;79.10
49253;DHT22;35103;47.952;-1.502;2022-11-20T00:21:16;7.70;79.10
49253;DHT22;35103;47.952;-1.502;2022-11-20T00:23:42;7.70;79.20
49253;DHT22;35103;47.952;-1.502;2022-11-20T00:26:10;7.70;79.00
49253;DHT22;35103;47.952;-1.502;2022-11-20T00:28:36;7.70;79.10
49253;DHT22;35103;47.952;-1.502;2022-11-20T00:31:12;7.60;79.20
49253;DHT22;35103;47.952;-1.502;2022-11-20T00:33:38;7.60;79.30
49253;DHT22;35103;47.952;-1.502;2022-11-20T00:36:06;7.60;79.20
49253;DHT22;35103;47.952;-1.502;2022-11-20T00:38:32;7.60;79.20
49253;DHT22;35103;47.952;-1.502;2022-11-20T00:40:59;7.60;79.40
49253;DHT22;35103;47.952;-1.502;2022-11-20T00:43:25;7.60;79.50
49253;DHT22;35103;47.952;-1.502;2022-11-20T00:45:56;7.60;79.30
49253;DHT22;35103;47.952;-1.502;2022-11-20T00:48:22;7.70;79.40
49253;DHT22;35103;47.952;-1.502;2022-11-20T00:50:47;7.70;79.30
49253;DHT22;35103;47.952;-1.502;2022-11-20T00:53:13;7.70;79.60
49253;DHT22;35103;47.952;-1.502;2022-11-20T00:55:39;7.80;79.40
49253;DHT22;35103;47.952;-1.502;2022-11-20T00:58:05;7.80;79.50
49253;DHT22;35103;47.952;-1.502;2022-11-20T01:00:30;7.80;79.50
49253;DHT22;35103;47.952;-1.502;2022-11-20T01:02:56;7.80;79.50
49253;DHT22;35103;47.952;-1.502;2022-11-20T01:05:22;7.80;79.50
49253;DHT22;35103;47.952;-1.502;2022-11-20T01:07:47;7.90;79.60
49253;DHT22;35103;47.952;-1.502;2022-11-20T01:10:13;7.90;79.60
49253;DHT22;35103;47.952;-1.502;2022-11-20T01:12:39;7.80;79.80
49253;DHT22;35103;47.952;-1.502;2022-11-20T01:15:05;7.90;79.70
49253;DHT22;35103;47.952;-1.502;2022-11-20T01:17:31;7.90;79.80
49253;DHT22;35103;47.952;-1.502;2022-11-20T01:19:57;8.00;79.70
49253;DHT22;35103;47.952;-1.502;2022-11-20T01:22:22;7.90;79.80
49253;DHT22;35103;47.952;-1.502;2022-11-20T01:24:48;7.90;79.90
49253;DHT22;35103;47.952;-1.502;2022-11-20T01:27:14;8.00;79.80
49253;DHT22;35103;47.952;-1.502;2022-11-20T01:29:39;8.00;79.80
49253;DHT22;35103;47.952;-1.502;2022-11-20T01:32:05;8.00;79.90
49253;DHT22;35103;47.952;-1.502;2022-11-20T01:34:30;8.00;79.90
49253;DHT22;35103;47.952;-1.502;2022-11-20T01:36:56;8.10;80.10
49253;DHT22;35103;47.952;-1.502;2022-11-20T01:39:23;8.10;80.00
49253;DHT22;35103;47.952;-1.502;2022-11-20T01:41:50;8.10;80.00
49253;DHT22;35103;47.952;-1.502;2022-11-20T01:44:20;8.20;79.90
49253;DHT22;35103;47.952;-1.502;2022-11-20T01:47:02;8.20;80.00
49253;DHT22;35103;47.952;-1.502;2022-11-20T01:49:40;8.20;80.00
49253;DHT22;35103;47.952;-1.502;2022-11-20T01:52:16;8.20;80.00
49253;DHT22;35103;47.952;-1.502;2022-11-20T01:54:50;8.30;80.10
49253;DHT22;35103;47.952;-1.502;2022-11-20T01:57:19;8.30;80.10
49253;DHT22;35103;47.952;-1.502;2022-11-20T01:59:54;8.30;80.20
49253;DHT22;35103;47.952;-1.502;2022-11-20T02:02:22;8.30;80.20
49253;DHT22;35103;47.952;-1.502;2022-11-20T02:04:49;8.30;80.20
49253;DHT22;35103;47.952;-1.502;2022-11-20T02:07:17;8.30;80.40
49253;DHT22;35103;47.952;-1.502;2022-11-20T02:09:42;8.30;80.30
49253;DHT22;35103;47.952;-1.502;2022-11-20T02:12:08;8.30;80.40
49253;DHT22;35103;47.952;-1.502;2022-11-20T02:14:33;8.30;80.50
49253;DHT22;35103;47.952;-1.502;2022-11-20T02:16:59;8.30;80.30
49253;DHT22;35103;47.952;-1.502;2022-11-20T02:19:30;8.30;80.50
49253;DHT22;35103;47.952;-1.502;2022-11-20T02:22:05;8.30;80.60
49253;DHT22;35103;47.952;-1.502;2022-11-20T02:24:32;8.30;80.70
49253;DHT22;35103;47.952;-1.502;2022-11-20T02:27:02;8.30;80.90
49253;DHT22;35103;47.952;-1.502;2022-11-20T02:29:35;8.30;80.60
49253;DHT22;35103;47.952;-1.502;2022-11-20T02:32:02;8.30;80.80
49253;DHT22;35103;47.952;-1.502;2022-11-20T02:34:28;8.30;80.80
49253;DHT22;35103;47.952;-1.502;2022-11-20T02:36:54;8.40;80.90
49253;DHT22;35103;47.952;-1.502;2022-11-20T02:39:20;8.40;80.80
49253;DHT22;35103;47.952;-1.502;2022-11-20T02:41:47;8.40;81.20
49253;DHT22;35103;47.952;-1.502;2022-11-20T02:44:12;8.40;81.20
49253;DHT22;35103;47.952;-1.502;2022-11-20T02:46:38;8.40;81.40
49253;DHT22;35103;47.952;-1.502;2022-11-20T02:49:04;8.50;81.30
49253;DHT22;35103;47.952;-1.502;2022-11-20T02:51:31;8.50;81.30
49253;DHT22;35103;47.952;-1.502;2022-11-20T02:53:57;8.50;81.50
49253;DHT22;35103;47.952;-1.502;2022-11-20T02:56:23;8.50;81.60
49253;DHT22;35103;47.952;-1.502;2022-11-20T02:58:48;8.60;81.40
49253;DHT22;35103;47.952;-1.502;2022-11-20T03:01:14;8.60;81.70
49253;DHT22;35103;47.952;-1.502;2022-11-20T03:03:39;8.60;81.70
49253;DHT22;35103;47.952;-1.502;2022-11-20T03:06:05;8.60;81.60
49253;DHT22;35103;47.952;-1.502;2022-11-20T03:08:31;8.60;81.50
49253;DHT22;35103;47.952;-1.502;2022-11-20T03:10:56;8.70;81.60
49253;DHT22;35103;47.952;-1.502;2022-11-20T03:13:22;8.70;81.70
49253;DHT22;35103;47.952;-1.502;2022-11-20T03:15:47;8.60;81.50
49253;DHT22;35103;47.952;-1.502;2022-11-20T03:18:13;8.70;81.40
49253;DHT22;35103;47.952;-1.502;2022-11-20T03:20:38;8.70;81.50
49253;DHT22;35103;47.952;-1.502;2022-11-20T03:23:04;8.80;82.00
49253;DHT22;35103;47.952;-1.502;2022-11-20T03:25:29;8.70;81.70
49253;DHT22;35103;47.952;-1.502;2022-11-20T03:27:55;8.80;81.70
49253;DHT22;35103;47.952;-1.502;2022-11-20T03:30:21;8.70;81.70
49253;DHT22;35103;47.952;-1.502;2022-11-20T03:32:47;8.80;82.00
49253;DHT22;35103;47.952;-1.502;2022-11-20T03:35:12;8.80;81.90
49253;DHT22;35103;47.952;-1.502;2022-11-20T03:37:38;8.80;82.40
49253;DHT22;35103;47.952;-1.502;2022-11-20T03:40:04;8.80;82.00
49253;DHT22;35103;47.952;-1.502;2022-11-20T03:42:30;8.70;82.10
49253;DHT22;35103;47.952;-1.502;2022-11-20T03:44:55;8.70;82.40
49253;DHT22;35103;47.952;-1.502;2022-11-20T03:47:21;8.70;82.30
49253;DHT22;35103;47.952;-1.502;2022-11-20T03:49:46;8.70;82.10
49253;DHT22;35103;47.952;-1.502;2022-11-20T03:52:12;8.80;82.20
49253;DHT22;35103;47.952;-1.502;2022-11-20T03:54:37;8.80;82.10
49253;DHT22;35103;47.952;-1.502;2022-11-20T03:57:03;8.80;82.10
49253;DHT22;35103;47.952;-1.502;2022-11-20T03:59:28;8.80;82.40
49253;DHT22;35103;47.952;-1.502;2022-11-20T04:01:54;8.80;82.50
49253;DHT22;35103;47.952;-1.502;2022-11-20T04:04:19;8.80;82.40
49253;DHT22;35103;47.952;-1.502;2022-11-20T04:06:45;8.80;82.30
49253;DHT22;35103;47.952;-1.502;2022-11-20T04:09:11;8.80;82.30
49253;DHT22;35103;47.952;-1.502;2022-11-20T04:11:39;8.80;82.30
49253;DHT22;35103;47.952;-1.502;2022-11-20T04:14:11;8.90;82.20
49253;DHT22;35103;47.952;-1.502;2022-11-20T04:16:37;8.80;82.20
49253;DHT22;35103;47.952;-1.502;2022-11-20T04:19:05;8.90;82.40
49253;DHT22;35103;47.952;-1.502;2022-11-20T04:21:31;8.90;82.30
49253;DHT22;35103;47.952;-1.502;2022-11-20T04:23:57;8.90;82.50
49253;DHT22;35103;47.952;-1.502;2022-11-20T04:26:25;8.90;82.70
49253;DHT22;35103;47.952;-1.502;2022-11-20T04:28:51;8.90;82.90
49253;DHT22;35103;47.952;-1.502;2022-11-20T04:31:22;8.90;83.10
49253;DHT22;35103;47.952;-1.502;2022-11-20T04:33:48;8.90;83.00
49253;DHT22;35103;47.952;-1.502;2022-11-20T04:36:16;9.00;83.00
49253;DHT22;35103;47.952;-1.502;2022-11-20T04:38:42;9.00;82.90
49253;DHT22;35103;47.952;-1.502;2022-11-20T04:41:15;9.00;83.10
49253;DHT22;35103;47.952;-1.502;2022-11-20T04:43:41;9.00;83.30
49253;DHT22;35103;47.952;-1.502;2022-11-20T04:46:06;9.10;83.50
49253;DHT22;35103;47.952;-1.502;2022-11-20T04:48:32;9.10;83.90
49253;DHT22;35103;47.952;-1.502;2022-11-20T04:50:57;9.10;83.80
49253;DHT22;35103;47.952;-1.502;2022-11-20T04:53:27;9.20;83.60
49253;DHT22;35103;47.952;-1.502;2022-11-20T04:55:59;9.20;83.60
49253;DHT22;35103;47.952;-1.502;2022-11-20T04:58:25;9.30;83.50
49253;DHT22;35103;47.952;-1.502;2022-11-20T05:00:50;9.30;83.50
49253;DHT22;35103;47.952;-1.502;2022-11-20T05:03:16;9.30;83.90
49253;DHT22;35103;47.952;-1.502;2022-11-20T05:05:41;9.30;83.80
49253;DHT22;35103;47.952;-1.502;2022-11-20T05:08:07;9.30;83.80
49253;DHT22;35103;47.952;-1.502;2022-11-20T05:10:32;9.30;83.90
49253;DHT22;35103;47.952;-1.502;2022-11-20T05:12:58;9.30;83.90
49253;DHT22;35103;47.952;-1.502;2022-11-20T05:15:24;9.30;84.40
49253;DHT22;35103;47.952;-1.502;2022-11-20T05:17:50;9.30;84.30
49253;DHT22;35103;47.952;-1.502;2022-11-20T05:20:16;9.30;84.30
49253;DHT22;35103;47.952;-1.502;2022-11-20T05:22:42;9.30;84.20
49253;DHT22;35103;47.952;-1.502;2022-11-20T05:25:08;9.30;84.10
49253;DHT22;35103;47.952;-1.502;2022-11-20T05:27:34;9.30;84.30
49253;DHT22;35103;47.952;-1.502;2022-11-20T05:29:59;9.30;84.30
49253;DHT22;35103;47.952;-1.502;2022-11-20T05:32:25;9.30;84.70
49253;DHT22;35103;47.952;-1.502;2022-11-20T05:34:51;9.30;85.00
49253;DHT22;35103;47.952;-1.502;2022-11-20T05:37:17;9.30;85.40
49253;DHT22;35103;47.952;-1.502;2022-11-20T05:39:42;9.30;85.10
49253;DHT22;35103;47.952;-1.502;2022-11-20T05:42:08;9.30;85.30
49253;DHT22;35103;47.952;-1.502;2022-11-20T05:44:33;9.30;85.30
49253;DHT22;35103;47.952;-1.502;2022-11-20T05:46:59;9.30;85.50
49253;DHT22;35103;47.952;-1.502;2022-11-20T05:49:24;9.30;85.30
49253;DHT22;35103;47.952;-1.502;2022-11-20T05:51:50;9.40;85.70
49253;DHT22;35103;47.952;-1.502;2022-11-20T05:54:16;9.40;85.40
49253;DHT22;35103;47.952;-1.502;2022-11-20T05:56:41;9.40;85.50
49253;DHT22;35103;47.952;-1.502;2022-11-20T05:59:07;9.40;85.70
49253;DHT22;35103;47.952;-1.502;2022-11-20T06:01:32;9.50;85.80
49253;DHT22;35103;47.952;-1.502;2022-11-20T06:03:58;9.50;85.40
49253;DHT22;35103;47.952;-1.502;2022-11-20T06:06:23;9.50;85.70
49253;DHT22;35103;47.952;-1.502;2022-11-20T06:08:49;9.50;85.80
49253;DHT22;35103;47.952;-1.502;2022-11-20T06:11:15;9.50;85.80
49253;DHT22;35103;47.952;-1.502;2022-11-20T06:13:41;9.60;85.80
49253;DHT22;35103;47.952;-1.502;2022-11-20T06:16:07;9.60;86.10
49253;DHT22;35103;47.952;-1.502;2022-11-20T06:18:33;9.60;85.90
49253;DHT22;35103;47.952;-1.502;2022-11-20T06:21:07;9.60;85.80
49253;DHT22;35103;47.952;-1.502;2022-11-20T06:23:34;9.60;85.70
49253;DHT22;35103;47.952;-1.502;2022-11-20T06:26:08;9.70;85.50
49253;DHT22;35103;47.952;-1.502;2022-11-20T06:28:34;9.70;85.60
49253;DHT22;35103;47.952;-1.502;2022-11-20T06:31:00;9.70;85.70
49253;DHT22;35103;47.952;-1.502;2022-11-20T06:33:26;9.70;85.50
49253;DHT22;35103;47.952;-1.502;2022-11-20T06:35:55;9.80;85.60
49253;DHT22;35103;47.952;-1.502;2022-11-20T06:38:21;9.80;85.60
49253;DHT22;35103;47.952;-1.502;2022-11-20T06:40:46;9.80;85.80
49253;DHT22;35103;47.952;-1.502;2022-11-20T06:43:12;9.80;86.30
49253;DHT22;35103;47.952;-1.502;2022-11-20T06:45:37;9.80;87.30
49253;DHT22;35103;47.952;-1.502;2022-11-20T06:48:03;9.80;87.00
49253;DHT22;35103;47.952;-1.502;2022-11-20T06:50:29;9.80;86.80
49253;DHT22;35103;47.952;-1.502;2022-11-20T06:52:54;9.80;86.50
49253;DHT22;35103;47.952;-1.502;2022-11-20T06:55:20;9.90;86.30
49253;DHT22;35103;47.952;-1.502;2022-11-20T06:57:45;9.90;86.20
49253;DHT22;35103;47.952;-1.502;2022-11-20T07:00:11;10.00;86.20
49253;DHT22;35103;47.952;-1.502;2022-11-20T07:02:37;10.00;85.90
49253;DHT22;35103;47.952;-1.502;2022-11-20T07:05:03;10.10;85.70
49253;DHT22;35103;47.952;-1.502;2022-11-20T07:07:28;10.10;85.50
49253;DHT22;35103;47.952;-1.502;2022-11-20T07:09:54;10.20;85.40
49253;DHT22;35103;47.952;-1.502;2022-11-20T07:12:20;10.20;85.20
49253;DHT22;35103;47.952;-1.502;2022-11-20T07:14:46;10.20;85.10
49253;DHT22;35103;47.952;-1.502;2022-11-20T07:17:11;10.20;85.20
49253;DHT22;35103;47.952;-1.502;2022-11-20T07:19:37;10.30;85.10
49253;DHT22;35103;47.952;-1.502;2022-11-20T07:22:03;10.30;85.00
49253;DHT22;35103;47.952;-1.502;2022-11-20T07:24:28;10.30;85.00
49253;DHT22;35103;47.952;-1.502;2022-11-20T07:26:54;10.30;84.90
49253;DHT22;35103;47.952;-1.502;2022-11-20T07:29:19;10.30;84.80
49253;DHT22;35103;47.952;-1.502;2022-11-20T07:31:45;10.30;84.80
49253;DHT22;35103;47.952;-1.502;2022-11-20T07:34:10;10.30;84.80
49253;DHT22;35103;47.952;-1.502;2022-11-20T07:36:36;10.30;84.80
49253;DHT22;35103;47.952;-1.502;2022-11-20T07:39:01;10.30;84.80
49253;DHT22;35103;47.952;-1.502;2022-11-20T07:41:27;10.30;84.70
49253;DHT22;35103;47.952;-1.502;2022-11-20T07:43:53;10.20;84.70
49253;DHT22;35103;47.952;-1.502;2022-11-20T07:46:18;10.20;84.70
49253;DHT22;35103;47.952;-1.502;2022-11-20T07:48:44;10.20;84.70
49253;DHT22;35103;47.952;-1.502;2022-11-20T07:51:09;10.20;84.80
49253;DHT22;35103;47.952;-1.502;2022-11-20T07:53:35;10.20;84.80
49253;DHT22;35103;47.952;-1.502;2022-11-20T07:56:01;10.20;84.80
49253;DHT22;35103;47.952;-1.502;2022-11-20T07:58:29;10.20;84.90
49253;DHT22;35103;47.952;-1.502;2022-11-20T08:00:55;10.10;84.90
49253;DHT22;35103;47.952;-1.502;2022-11-20T08:03:20;10.20;85.00
49253;DHT22;35103;47.952;-1.502;2022-11-20T08:05:46;10.20;85.00
49253;DHT22;35103;47.952;-1.502;2022-11-20T08:08:12;10.20;85.00
49253;DHT22;35103;47.952;-1.502;2022-11-20T08:10:38;10.20;85.10
49253;DHT22;35103;47.952;-1.502;2022-11-20T08:13:03;10.20;85.00
49253;DHT22;35103;47.952;-1.502;2022-11-20T08:15:29;10.30;85.10
49253;DHT22;35103;47.952;-1.502;2022-11-20T08:18:08;10.30;85.10
49253;DHT22;35103;47.952;-1.502;2022-11-20T08:20:35;10.30;85.10
49253;DHT22;35103;47.952;-1.502;2022-11-20T08:23:02;10.30;85.10
49253;DHT22;35103;47.952;-1.502;2022-11-20T08:25:29;10.30;85.10
49253;DHT22;35103;47.952;-1.502;2022-11-20T08:27:57;10.30;85.10
49253;DHT22;35103;47.952;-1.502;2022-11-20T08:30:22;10.30;85.20
49253;DHT22;35103;47.952;-1.502;2022-11-20T08:32:48;10.30;85.20
49253;DHT22;35103;47.952;-1.502;2022-11-20T08:35:14;10.40;85.30
49253;DHT22;35103;47.952;-1.502;2022-11-20T08:37:39;10.40;85.40
49253;DHT22;35103;47.952;-1.502;2022-11-20T08:40:05;10.40;85.50
49253;DHT22;35103;47.952;-1.502;2022-11-20T08:42:31;10.40;85.70
49253;DHT22;35103;47.952;-1.502;2022-11-20T08:44:56;10.40;85.80
49253;DHT22;35103;47.952;-1.502;2022-11-20T08:47:22;10.50;85.90
49253;DHT22;35103;47.952;-1.502;2022-11-20T08:49:47;10.40;85.90
49253;DHT22;35103;47.952;-1.502;2022-11-20T08:52:13;10.50;85.80
49253;DHT22;35103;47.952;-1.502;2022-11-20T08:54:38;10.50;85.80
49253;DHT22;35103;47.952;-1.502;2022-11-20T08:57:04;10.60;85.80
49253;DHT22;35103;47.952;-1.502;2022-11-20T08:59:29;10.60;85.80
49253;DHT22;35103;47.952;-1.502;2022-11-20T09:01:55;10.60;85.80
49253;DHT22;35103;47.952;-1.502;2022-11-20T09:04:20;10.60;85.90
49253;DHT22;35103;47.952;-1.502;2022-11-20T09:06:46;10.60;86.00
49253;DHT22;35103;47.952;-1.502;2022-11-20T09:09:11;10.70;85.90
49253;DHT22;35103;47.952;-1.502;2022-11-20T09:11:37;10.70;86.00
49253;DHT22;35103;47.952;-1.502;2022-11-20T09:14:03;10.70;86.30
49253;DHT22;35103;47.952;-1.502;2022-11-20T09:16:29;10.70;86.10
49253;DHT22;35103;47.952;-1.502;2022-11-20T09:18:54;10.80;86.30
49253;DHT22;35103;47.952;-1.502;2022-11-20T09:21:20;10.80;86.30
49253;DHT22;35103;47.952;-1.502;2022-11-20T09:23:45;10.80;86.30
49253;DHT22;35103;47.952;-1.502;2022-11-20T09:26:13;10.80;86.40
49253;DHT22;35103;47.952;-1.502;2022-11-20T09:28:39;10.80;86.50
49253;DHT22;35103;47.952;-1.502;2022-11-20T09:31:08;10.80;86.60
49253;DHT22;35103;47.952;-1.502;2022-11-20T09:33:35;10.90;86.60
49253;DHT22;35103;47.952;-1.502;2022-11-20T09:36:01;10.90;86.60
49253;DHT22;35103;47.952;-1.502;2022-11-20T09:38:26;10.90;86.60
49253;DHT22;35103;47.952;-1.502;2022-11-20T09:41:06;11.00;86.60
49253;DHT22;35103;47.952;-1.502;2022-11-20T09:46:55;11.00;86.10
49253;DHT22;35103;47.952;-1.502;2022-11-20T09:52:22;11.00;85.80
49253;DHT22;35103;47.952;-1.502;2022-11-20T09:54:52;11.00;86.00
49253;DHT22;35103;47.952;-1.502;2022-11-20T09:57:21;11.00;86.20
49253;DHT22;35103;47.952;-1.502;2022-11-20T09:59:56;11.10;86.00
49253;DHT22;35103;47.952;-1.502;2022-11-20T10:02:30;11.20;86.00
49253;DHT22;35103;47.952;-1.502;2022-11-20T10:05:01;11.30;85.60
49253;DHT22;35103;47.952;-1.502;2022-11-20T10:09:58;11.30;85.00
49253;DHT22;35103;47.952;-1.502;2022-11-20T10:20:49;11.50;84.60
49253;DHT22;35103;47.952;-1.502;2022-11-20T10:23:36;11.60;84.20
49253;DHT22;35103;47.952;-1.502;2022-11-20T10:26:22;11.70;84.40
49253;DHT22;35103;47.952;-1.502;2022-11-20T10:29:17;11.80;84.10
49253;DHT22;35103;47.952;-1.502;2022-11-20T10:31:44;11.80;82.90
49253;DHT22;35103;47.952;-1.502;2022-11-20T10:34:31;11.80;83.50
49253;DHT22;35103;47.952;-1.502;2022-11-20T10:37:11;11.80;83.20
49253;DHT22;35103;47.952;-1.502;2022-11-20T10:39:59;11.70;83.10
49253;DHT22;35103;47.952;-1.502;2022-11-20T10:42:44;11.70;83.30
49253;DHT22;35103;47.952;-1.502;2022-11-20T10:47:54;11.80;82.80
49253;DHT22;35103;47.952;-1.502;2022-11-20T10:50:21;11.90;83.50
49253;DHT22;35103;47.952;-1.502;2022-11-20T10:53:08;12.00;83.20
49253;DHT22;35103;47.952;-1.502;2022-11-20T10:56:05;12.00;82.40
49253;DHT22;35103;47.952;-1.502;2022-11-20T11:01:14;12.00;82.60
49253;DHT22;35103;47.952;-1.502;2022-11-20T11:03:41;12.00;81.90
49253;DHT22;35103;47.952;-1.502;2022-11-20T11:06:14;12.00;81.50
49253;DHT22;35103;47.952;-1.502;2022-11-20T11:08:40;12.00;82.00
49253;DHT22;35103;47.952;-1.502;2022-11-20T11:11:24;12.00;81.80
49253;DHT22;35103;47.952;-1.502;2022-11-20T11:13:51;12.00;81.90
49253;DHT22;35103;47.952;-1.502;2022-11-20T11:16:23;12.00;81.00
49253;DHT22;35103;47.952;-1.502;2022-11-20T11:18:49;12.00;81.30
49253;DHT22;35103;47.952;-1.502;2022-11-20T11:21:21;12.10;81.40
49253;DHT22;35103;47.952;-1.502;2022-11-20T11:24:01;12.10;80.80
49253;DHT22;35103;47.952;-1.502;2022-11-20T11:26:27;12.20;81.10
49253;DHT22;35103;47.952;-1.502;2022-11-20T11:28:57;12.30;81.30
49253;DHT22;35103;47.952;-1.502;2022-11-20T11:31:30;12.40;80.50
49253;DHT22;35103;47.952;-1.502;2022-11-20T11:34:07;12.40;80.00
49253;DHT22;35103;47.952;-1.502;2022-11-20T11:36:34;12.40;80.60
49253;DHT22;35103;47.952;-1.502;2022-11-20T11:39:02;12.40;80.40
49253;DHT22;35103;47.952;-1.502;2022-11-20T11:41:33;12.50;79.60
49253;DHT22;35103;47.952;-1.502;2022-11-20T11:44:18;12.60;79.50
49253;DHT22;35103;47.952;-1.502;2022-11-20T11:46:55;12.60;79.20
49253;DHT22;35103;47.952;-1.502;2022-11-20T11:49:21;12.70;78.50
49253;DHT22;35103;47.952;-1.502;2022-11-20T11:52:12;12.80;77.20
49253;DHT22;35103;47.952;-1.502;2022-11-20T11:54:50;12.70;78.10
49253;DHT22;35103;47.952;-1.502;2022-11-20T11:57:29;12.80;77.30
49253;DHT22;35103;47.952;-1.502;2022-11-20T12:00:16;12.90;78.30
49253;DHT22;35103;47.952;-1.502;2022-11-20T12:02:49;13.00;77.60
49253;DHT22;35103;47.952;-1.502;2022-11-20T12:05:41;13.10;76.80
49253;DHT22;35103;47.952;-1.502;2022-11-20T12:08:27;13.00;75.70
49253;DHT22;35103;47.952;-1.502;2022-11-20T12:11:06;12.90;75.20
49253;DHT22;35103;47.952;-1.502;2022-11-20T12:16:14;12.80;77.10
49253;DHT22;35103;47.952;-1.502;2022-11-20T12:18:41;12.90;77.00
49253;DHT22;35103;47.952;-1.502;2022-11-20T12:38:18;12.90;74.10
49253;DHT22;35103;47.952;-1.502;2022-11-20T12:43:26;12.80;74.10
49253;DHT22;35103;47.952;-1.502;2022-11-20T12:51:47;13.00;74.90
49253;DHT22;35103;47.952;-1.502;2022-11-20T12:54:35;13.10;74.90
49253;DHT22;35103;47.952;-1.502;2022-11-20T12:57:28;13.20;74.40
49253;DHT22;35103;47.952;-1.502;2022-11-20T13:00:09;13.30;74.60
49253;DHT22;35103;47.952;-1.502;2022-11-20T13:07:47;13.30;73.60
49253;DHT22;35103;47.952;-1.502;2022-11-20T13:10:31;13.30;72.80
49253;DHT22;35103;47.952;-1.502;2022-11-20T13:13:10;13.30;73.30
49253;DHT22;35103;47.952;-1.502;2022-11-20T13:18:42;13.30;72.70
49253;DHT22;35103;47.952;-1.502;2022-11-20T13:21:16;13.30;73.90
49253;DHT22;35103;47.952;-1.502;2022-11-20T13:23:42;13.30;73.10
49253;DHT22;35103;47.952;-1.502;2022-11-20T13:26:22;13.30;73.10
49253;DHT22;35103;47.952;-1.502;2022-11-20T13:29:01;13.30;73.60
49253;DHT22;35103;47.952;-1.502;2022-11-20T13:31:31;13.50;74.30
49253;DHT22;35103;47.952;-1.502;2022-11-20T13:33:59;13.50;72.20
49253;DHT22;35103;47.952;-1.502;2022-11-20T13:36:27;13.60;71.60
49253;DHT22;35103;47.952;-1.502;2022-11-20T13:38:55;13.60;71.80
49253;DHT22;35103;47.952;-1.502;2022-11-20T13:41:28;13.50;70.90
49253;DHT22;35103;47.952;-1.502;2022-11-20T13:44:10;13.50;71.10
49253;DHT22;35103;47.952;-1.502;2022-11-20T13:46:45;13.50;70.60
49253;DHT22;35103;47.952;-1.502;2022-11-20T13:49:33;13.50;70.60
49253;DHT22;35103;47.952;-1.502;2022-11-20T13:52:23;13.50;70.00
49253;DHT22;35103;47.952;-1.502;2022-11-20T14:00:13;13.30;70.90
49253;DHT22;35103;47.952;-1.502;2022-11-20T14:02:40;13.40;70.90
49253;DHT22;35103;47.952;-1.502;2022-11-20T14:05:17;13.60;71.60
49253;DHT22;35103;47.952;-1.502;2022-11-20T14:07:44;13.80;68.70
49253;DHT22;35103;47.952;-1.502;2022-11-20T14:10:24;13.80;69.10
49253;DHT22;35103;47.952;-1.502;2022-11-20T14:12:50;14.00;70.20
49253;DHT22;35103;47.952;-1.502;2022-11-20T14:15:33;14.10;68.30
49253;DHT22;35103;47.952;-1.502;2022-11-20T14:18:00;14.20;69.50
49253;DHT22;35103;47.952;-1.502;2022-11-20T14:20:38;14.20;69.00
49253;DHT22;35103;47.952;-1.502;2022-11-20T14:23:03;14.20;67.80
49253;DHT22;35103;47.952;-1.502;2022-11-20T14:25:29;14.30;68.20
49253;DHT22;35103;47.952;-1.502;2022-11-20T14:27:57;14.30;68.20
49253;DHT22;35103;47.952;-1.502;2022-11-20T14:30:25;14.10;65.10
49253;DHT22;35103;47.952;-1.502;2022-11-20T14:32:54;14.00;66.80
49253;DHT22;35103;47.952;-1.502;2022-11-20T14:35:35;14.00;67.00
49253;DHT22;35103;47.952;-1.502;2022-11-20T14:38:02;14.00;65.60
49253;DHT22;35103;47.952;-1.502;2022-11-20T14:40:35;14.00;66.10
49253;DHT22;35103;47.952;-1.502;2022-11-20T14:43:02;13.90;65.50
49253;DHT22;35103;47.952;-1.502;2022-11-20T14:45:30;14.00;66.80
49253;DHT22;35103;47.952;-1.502;2022-11-20T14:47:57;14.00;65.90
49253;DHT22;35103;47.952;-1.502;2022-11-20T14:50:29;14.30;66.50
49253;DHT22;35103;47.952;-1.502;2022-11-20T14:53:00;14.30;65.60
49253;DHT22;35103;47.952;-1.502;2022-11-20T14:55:28;14.30;64.90
49253;DHT22;35103;47.952;-1.502;2022-11-20T14:58:02;14.30;65.90
49253;DHT22;35103;47.952;-1.502;2022-11-20T15:00:29;14.10;65.10
49253;DHT22;35103;47.952;-1.502;2022-11-20T15:02:55;13.80;65.90
49253;DHT22;35103;47.952;-1.502;2022-11-20T15:05:24;13.70;66.30
49253;DHT22;35103;47.952;-1.502;2022-11-20T15:08:05;13.60;67.10
49253;DHT22;35103;47.952;-1.502;2022-11-20T15:10:31;13.50;67.40
49253;DHT22;35103;47.952;-1.502;2022-11-20T15:13:03;13.40;67.60
49253;DHT22;35103;47.952;-1.502;2022-11-20T15:15:35;13.40;68.10
49253;DHT22;35103;47.952;-1.502;2022-11-20T15:18:02;13.40;68.40
49253;DHT22;35103;47.952;-1.502;2022-11-20T15:20:33;13.40;68.30
49253;DHT22;35103;47.952;-1.502;2022-11-20T15:23:01;13.30;68.40
49253;DHT22;35103;47.952;-1.502;2022-11-20T15:25:26;13.20;68.60
49253;DHT22;35103;47.952;-1.502;2022-11-20T15:27:55;13.20;68.90
49253;DHT22;35103;47.952;-1.502;2022-11-20T15:30:21;13.00;69.00
49253;DHT22;35103;47.952;-1.502;2022-11-20T15:32:47;12.90;69.20
49253;DHT22;35103;47.952;-1.502;2022-11-20T15:35:14;12.80;69.40
49253;DHT22;35103;47.952;-1.502;2022-11-20T15:37:40;12.80;69.60
49253;DHT22;35103;47.952;-1.502;2022-11-20T15:40:06;12.70;69.80
49253;DHT22;35103;47.952;-1.502;2022-11-20T15:42:32;12.60;69.80
49253;DHT22;35103;47.952;-1.502;2022-11-20T15:44:58;12.50;70.00
49253;DHT22;35103;47.952;-1.502;2022-11-20T15:47:30;12.40;70.20
49253;DHT22;35103;47.952;-1.502;2022-11-20T15:49:56;12.30;70.20
49253;DHT22;35103;47.952;-1.502;2022-11-20T15:52:22;12.30;70.40
49253;DHT22;35103;47.952;-1.502;2022-11-20T15:54:47;12.20;70.60
49253;DHT22;35103;47.952;-1.502;2022-11-20T15:57:13;12.10;70.60
49253;DHT22;35103;47.952;-1.502;2022-11-20T15:59:39;12.00;70.60
49253;DHT22;35103;47.952;-1.502;2022-11-20T16:02:09;12.00;70.80
49253;DHT22;35103;47.952;-1.502;2022-11-20T16:04:35;11.90;70.90
49253;DHT22;35103;47.952;-1.502;2022-11-20T16:07:01;11.80;71.00
49253;DHT22;35103;47.952;-1.502;2022-11-20T16:09:26;11.80;71.30
49253;DHT22;35103;47.952;-1.502;2022-11-20T16:11:52;11.80;71.30
49253;DHT22;35103;47.952;-1.502;2022-11-20T16:14:17;11.60;71.50
49253;DHT22;35103;47.952;-1.502;2022-11-20T16:16:43;11.60;71.70
49253;DHT22;35103;47.952;-1.502;2022-11-20T16:19:10;11.50;71.80
49253;DHT22;35103;47.952;-1.502;2022-11-20T16:21:36;11.40;71.70
49253;DHT22;35103;47.952;-1.502;2022-11-20T16:24:04;11.40;72.00
49253;DHT22;35103;47.952;-1.502;2022-11-20T16:26:30;11.30;72.20
49253;DHT22;35103;47.952;-1.502;2022-11-20T16:28:58;11.30;72.10
49253;DHT22;35103;47.952;-1.502;2022-11-20T16:31:24;11.30;72.50
49253;DHT22;35103;47.952;-1.502;2022-11-20T16:33:52;11.20;72.50
49253;DHT22;35103;47.952;-1.502;2022-11-20T16:36:19;11.10;72.90